Time;durP1;ratioP1;P1;durP2;ratioP2;P2;SDS_P1;SDS_P2;PMS_P1;PMS_P2;Temp;Humidity;BMP_temperature;BMP_pressure;BME280_temperature;BME280_humidity;BME280_pressure;Samples;Min_cycle;Max_cycle;Signal;HPM_P1;HPM_P2
2023/05/20 00:00:30;;;;;;;0.55;0.43;;;;;;;16.85;100.00;102450.66;10415579;28;20497;-79
2023/05/20 00:05:32;;;;;;;0.10;0.10;;;;;;;16.92;100.00;102444.75;10448850;28;20076;-79
2023/05/20 00:10:36;;;;;;;0.00;0.00;;;;;;;16.80;100.00;102445.34;10415340;28;20053;-79
2023/05/20 00:15:38;;;;;;;0.13;0.10;;;;;;;16.63;100.00;102448.38;10416520;28;20072;-79
2023/05/20 00:20:40;;;;;;;0.10;0.10;;;;;;;16.98;100.00;102442.34;10435137;28;20048;-79
2023/05/20 00:25:41;;;;;;;0.22;0.22;;;;;;;16.76;100.00;102448.69;10441766;28;20200;-79
2023/05/20 00:30:43;;;;;;;0.90;0.82;;;;;;;16.72;100.00;102442.53;10449313;28;20049;-79
2023/05/20 00:35:45;;;;;;;0.70;0.28;;;;;;;16.77;100.00;102443.53;10432111;28;20060;-80
2023/05/20 00:40:47;;;;;;;0.00;0.00;;;;;;;16.83;100.00;102444.53;10414370;28;20037;-80
2023/05/20 00:45:49;;;;;;;0.00;0.00;;;;;;;16.71;100.00;102440.78;10423102;28;20053;-80
2023/05/20 00:50:51;;;;;;;0.20;0.17;;;;;;;16.73;100.00;102435.63;10414752;28;20497;-80
2023/05/20 00:55:53;;;;;;;0.20;0.20;;;;;;;16.44;100.00;102441.84;10431053;28;20049;-80
2023/05/20 01:00:55;;;;;;;0.88;0.50;;;;;;;16.66;100.00;102437.19;10427235;28;20416;-80
2023/05/20 01:05:57;;;;;;;0.77;0.35;;;;;;;16.53;100.00;102427.31;10431076;28;20500;-80
2023/05/20 01:11:13;;;;;;;0.17;0.17;;;;;;;16.62;100.00;102430.16;10427581;28;20508;-79
2023/05/20 01:16:17;;;;;;;0.30;0.10;;;;;;;16.68;100.00;102430.28;10411181;28;20048;-80
2023/05/20 01:21:20;;;;;;;0.68;0.40;;;;;;;16.70;100.00;102428.63;10444294;28;20055;-79
2023/05/20 01:26:25;;;;;;;0.95;0.55;;;;;;;16.78;100.00;102426.19;10438428;28;20037;-80
2023/05/20 01:31:32;;;;;;;0.10;0.10;;;;;;;17.01;100.00;102421.59;10436913;28;20041;-79
2023/05/20 01:36:35;;;;;;;0.25;0.25;;;;;;;17.12;100.00;102417.50;10420209;28;20126;-80
2023/05/20 01:41:38;;;;;;;0.10;0.10;;;;;;;16.88;100.00;102416.88;10424951;28;20049;-79
2023/05/20 01:46:40;;;;;;;0.32;0.22;;;;;;;16.92;100.00;102413.53;10420709;28;20044;-80
2023/05/20 01:51:41;;;;;;;0.22;0.22;;;;;;;16.97;100.00;102411.94;10441504;28;20055;-79
2023/05/20 01:56:45;;;;;;;0.17;0.17;;;;;;;17.01;100.00;102413.78;10435980;28;20045;-80
2023/05/20 02:01:47;;;;;;;0.95;0.38;;;;;;;16.84;100.00;102402.03;10437710;28;20435;-79
2023/05/20 02:06:49;;;;;;;3.80;0.55;;;;;;;17.10;100.00;102398.34;10419935;28;20554;-79
2023/05/20 02:11:51;;;;;;;0.00;0.00;;;;;;;16.90;100.00;102394.38;10435803;28;20049;-80
2023/05/20 02:16:53;;;;;;;0.28;0.20;;;;;;;17.00;100.00;102403.31;10427199;28;20064;-79
2023/05/20 02:21:55;;;;;;;0.20;0.00;;;;;;;16.88;100.00;102401.25;10434905;28;20049;-79
2023/05/20 02:26:57;;;;;;;0.20;0.20;;;;;;;16.54;100.00;102390.03;10416804;28;20063;-79
2023/05/20 02:32:00;;;;;;;0.20;0.20;;;;;;;16.71;100.00;102393.94;10430482;28;20056;-79
2023/05/20 02:37:02;;;;;;;0.00;0.00;;;;;;;16.80;100.00;102388.94;10443320;28;20044;-80
2023/05/20 02:42:04;;;;;;;0.00;0.00;;;;;;;16.27;100.00;102385.91;10437349;28;20136;-79
2023/05/20 02:47:06;;;;;;;0.32;0.10;;;;;;;16.49;100.00;102383.00;10433145;28;20492;-79
2023/05/20 02:52:07;;;;;;;0.17;0.17;;;;;;;16.25;100.00;102379.78;10434638;28;20047;-79
2023/05/20 02:57:09;;;;;;;0.38;0.28;;;;;;;16.52;100.00;102389.13;10434550;28;20495;-80
2023/05/20 03:02:11;;;;;;;2.38;1.52;;;;;;;16.16;100.00;102381.28;10434492;28;20447;-79
2023/05/20 03:07:16;;;;;;;0.00;0.00;;;;;;;16.06;100.00;102376.69;10433893;28;20056;-79
2023/05/20 03:12:18;;;;;;;0.98;0.73;;;;;;;15.89;100.00;102383.16;10413232;28;20131;-79
2023/05/20 03:17:20;;;;;;;0.40;0.35;;;;;;;15.80;100.00;102387.22;10435462;28;20072;-79
2023/05/20 03:22:22;;;;;;;0.10;0.10;;;;;;;16.04;100.00;102383.59;10451675;28;20037;-79
2023/05/20 03:27:25;;;;;;;0.20;0.10;;;;;;;15.77;100.00;102379.34;10432333;28;20052;-79
2023/05/20 03:32:27;;;;;;;1.13;0.65;;;;;;;15.88;100.00;102377.06;10415520;28;20045;-80
2023/05/20 03:37:29;;;;;;;0.20;0.20;;;;;;;15.86;100.00;102383.97;10450762;28;20124;-79
2023/05/20 03:42:35;;;;;;;0.00;0.00;;;;;;;15.87;100.00;102390.91;10440973;28;20068;-79
2023/05/20 03:47:37;;;;;;;0.20;0.20;;;;;;;15.71;100.00;102390.44;10429243;28;20053;-79
2023/05/20 03:52:39;;;;;;;0.65;0.35;;;;;;;15.94;100.00;102387.63;10416339;28;20037;-79
2023/05/20 03:57:41;;;;;;;2.28;0.22;;;;;;;15.61;100.00;102392.72;10432513;28;20040;-79
2023/05/20 04:02:43;;;;;;;0.17;0.17;;;;;;;15.54;100.00;102391.69;10429124;28;20118;-79
2023/05/20 04:07:48;;;;;;;0.00;0.00;;;;;;;15.63;100.00;102391.06;10419420;28;20536;-79
2023/05/20 04:12:52;;;;;;;0.00;0.00;;;;;;;15.48;100.00;102394.97;10437446;28;20121;-80
2023/05/20 04:17:55;;;;;;;0.10;0.10;;;;;;;15.60;100.00;102390.97;10450247;28;20049;-80
2023/05/20 04:22:57;;;;;;;0.00;0.00;;;;;;;15.74;100.00;102402.66;10438021;28;20045;-80
2023/05/20 04:27:59;;;;;;;0.35;0.20;;;;;;;15.43;100.00;102401.75;10431028;28;20550;-80
2023/05/20 04:33:02;;;;;;;0.00;0.00;;;;;;;15.33;100.00;102404.91;10424681;28;20045;-80
2023/05/20 04:38:04;;;;;;;0.10;0.10;;;;;;;15.64;100.00;102403.22;10450021;28;20510;-80
2023/05/20 04:43:06;;;;;;;0.10;0.10;;;;;;;15.81;100.00;102399.38;10418760;28;20148;-80
2023/05/20 04:48:08;;;;;;;0.10;0.10;;;;;;;15.76;100.00;102403.56;10433955;28;20045;-81
2023/05/20 04:53:11;;;;;;;2.00;0.85;;;;;;;16.26;100.00;102402.34;10410860;28;20033;-80
2023/05/20 04:58:16;;;;;;;0.80;0.15;;;;;;;16.23;100.00;102397.97;10440154;28;20365;-80
2023/05/20 05:03:18;;;;;;;0.20;0.20;;;;;;;16.40;100.00;102402.69;10433185;28;20392;-79
2023/05/20 05:08:21;;;;;;;1.27;0.57;;;;;;;16.42;100.00;102401.88;10439783;28;20053;-79
2023/05/20 05:13:25;;;;;;;0.30;0.30;;;;;;;16.28;100.00;102398.94;10433181;28;20076;-76
2023/05/20 05:18:27;;;;;;;0.15;0.15;;;;;;;16.60;100.00;102395.41;10436647;28;20049;-76
2023/05/20 05:23:30;;;;;;;0.10;0.10;;;;;;;16.83;100.00;102395.06;10432296;28;20066;-77
2023/05/20 05:28:32;;;;;;;0.35;0.25;;;;;;;17.19;100.00;102389.88;10428365;28;20055;-76
2023/05/20 05:33:34;;;;;;;0.05;0.03;;;;;;;17.17;100.00;102382.84;10440942;28;20056;-78
2023/05/20 05:38:36;;;;;;;0.00;0.00;;;;;;;17.10;100.00;102387.94;10438627;28;20443;-77
2023/05/20 05:43:38;;;;;;;0.22;0.22;;;;;;;17.17;100.00;102388.97;10438167;28;20523;-78
2023/05/20 05:48:41;;;;;;;0.22;0.00;;;;;;;17.81;100.00;102385.06;10434987;28;20044;-78
2023/05/20 05:53:43;;;;;;;0.38;0.17;;;;;;;17.55;100.00;102382.78;10434847;28;20053;-77
2023/05/20 05:58:47;;;;;;;0.43;0.32;;;;;;;17.80;100.00;102386.78;10418381;28;20053;-77
2023/05/20 06:03:50;;;;;;;0.10;0.10;;;;;;;17.60;100.00;102383.78;10432228;28;20037;-77
2023/05/20 06:08:51;;;;;;;0.10;0.10;;;;;;;17.95;100.00;102386.25;10436607;28;20086;-78
2023/05/20 06:13:53;;;;;;;0.10;0.10;;;;;;;18.43;100.00;102381.88;10417929;28;20049;-77
2023/05/20 06:18:56;;;;;;;0.68;0.30;;;;;;;18.47;100.00;102374.97;10433374;28;20048;-78
2023/05/20 06:23:58;;;;;;;0.45;0.45;;;;;;;18.60;100.00;102374.31;10421637;28;20049;-78
2023/05/20 06:29:00;;;;;;;0.00;0.00;;;;;;;18.83;100.00;102368.56;10409811;28;20049;-78
2023/05/20 06:34:01;;;;;;;0.00;0.00;;;;;;;19.25;100.00;102362.22;10432430;28;20069;-78
2023/05/20 06:39:05;;;;;;;0.10;0.10;;;;;;;19.75;100.00;102357.59;10403983;28;20102;-80
2023/05/20 06:44:09;;;;;;;0.10;0.10;;;;;;;18.77;100.00;102356.28;10432757;28;20048;-80
2023/05/20 06:49:27;;;;;;;0.38;0.32;;;;;;;19.19;100.00;102346.47;10438058;28;20049;-77
2023/05/20 06:54:29;;;;;;;0.32;0.32;;;;;;;19.96;100.00;102347.38;10420861;28;20132;-80
2023/05/20 06:59:31;;;;;;;0.30;0.20;;;;;;;20.18;97.81;102349.34;10441304;28;20056;-81
2023/05/20 07:04:33;;;;;;;0.52;0.43;;;;;;;20.17;97.39;102345.81;10415378;28;20112;-80
2023/05/20 07:09:35;;;;;;;0.22;0.15;;;;;;;20.50;95.90;102344.34;10443818;28;20063;-80
2023/05/20 07:14:39;;;;;;;0.40;0.20;;;;;;;21.10;94.22;102335.13;10421661;28;20087;-80
2023/05/20 07:19:43;;;;;;;0.22;0.10;;;;;;;21.00;90.10;102328.97;10432328;28;20139;-77
2023/05/20 07:24:45;;;;;;;0.05;0.05;;;;;;;21.27;92.39;102323.00;10423153;28;20053;-79
2023/05/20 07:29:47;;;;;;;0.25;0.20;;;;;;;21.85;89.90;102324.94;10437954;28;20053;-80
2023/05/20 07:34:50;;;;;;;0.30;0.08;;;;;;;21.54;89.23;102326.56;10458510;28;20041;-78
2023/05/20 07:39:52;;;;;;;0.50;0.50;;;;;;;22.02;90.72;102303.06;10424996;28;20056;-78
2023/05/20 07:44:55;;;;;;;0.73;0.32;;;;;;;23.27;86.44;102296.72;10441522;28;20139;-79
2023/05/20 07:49:57;;;;;;;2.30;1.40;;;;;;;22.89;86.17;102293.31;10423185;28;20048;-75
2023/05/20 07:54:59;;;;;;;0.25;0.22;;;;;;;22.13;85.24;102293.44;10410994;28;20480;-77
2023/05/20 08:00:01;;;;;;;0.90;0.25;;;;;;;23.32;81.89;102296.66;10432731;28;20136;-78
2023/05/20 08:05:05;;;;;;;0.47;0.47;;;;;;;23.07;81.31;102289.75;10438293;28;20049;-77
2023/05/20 08:10:07;;;;;;;0.30;0.10;;;;;;;22.85;79.29;102288.06;10438142;28;20045;-78
2023/05/20 08:15:11;;;;;;;0.55;0.40;;;;;;;23.56;79.04;102290.41;10435765;28;20037;-78
2023/05/20 08:20:13;;;;;;;0.15;0.15;;;;;;;23.63;77.83;102286.84;10438398;28;20408;-77
2023/05/20 08:25:15;;;;;;;0.20;0.10;;;;;;;22.26;75.00;102285.56;10439907;28;20049;-79
2023/05/20 08:30:18;;;;;;;0.22;0.22;;;;;;;23.66;74.51;102280.69;10429456;28;20064;-77
2023/05/20 08:35:22;;;;;;;0.22;0.20;;;;;;;23.68;74.60;102282.44;10457096;28;20091;-78
2023/05/20 08:40:26;;;;;;;0.32;0.32;;;;;;;23.40;72.35;102279.97;10425596;28;20052;-77
2023/05/20 08:45:31;;;;;;;0.20;0.20;;;;;;;24.08;72.63;102274.25;10465081;28;20079;-79
2023/05/20 08:50:38;;;;;;;0.22;0.08;;;;;;;24.87;75.03;102267.28;10431228;28;20048;-79
2023/05/20 08:55:47;;;;;;;0.52;0.15;;;;;;;22.98;72.83;102282.78;10447643;28;20064;-78
2023/05/20 09:00:52;;;;;;;0.08;0.08;;;;;;;23.77;71.97;102274.47;10448883;28;20400;-78
2023/05/20 09:06:15;;;;;;;0.10;0.10;;;;;;;24.02;72.28;102263.75;10465219;28;20044;-78
2023/05/20 09:11:17;;;;;;;0.30;0.30;;;;;;;24.32;71.64;102260.84;10448022;28;20083;-79
2023/05/20 09:16:19;;;;;;;1.13;0.50;;;;;;;24.00;69.43;102264.66;10465495;28;20037;-79
2023/05/20 09:21:28;;;;;;;0.75;0.30;;;;;;;23.63;73.01;102254.41;10465635;28;20048;-76
2023/05/20 09:26:30;;;;;;;0.30;0.20;;;;;;;24.65;72.20;102243.81;10446330;28;20053;-79
2023/05/20 09:31:32;;;;;;;0.15;0.15;;;;;;;24.71;70.55;102254.31;10466659;28;20403;-79
2023/05/20 09:36:34;;;;;;;0.30;0.20;;;;;;;25.39;69.25;102247.28;10438994;28;20107;-78
2023/05/20 09:41:54;;;;;;;0.00;0.00;;;;;;;24.79;70.78;102243.69;10446798;28;20057;-79
2023/05/20 09:46:56;;;;;;;0.60;0.43;;;;;;;26.25;66.87;102229.13;10463546;28;20048;-78
2023/05/20 09:52:00;;;;;;;0.05;0.05;;;;;;;24.60;66.60;102229.81;10463957;28;20555;-79
2023/05/20 09:57:03;;;;;;;0.10;0.10;;;;;;;25.44;66.71;102234.91;10433390;28;20179;-78
2023/05/20 10:02:06;;;;;;;0.10;0.10;;;;;;;24.23;68.27;102224.97;10451280;28;20056;-77
2023/05/20 10:07:51;;;;;;;0.00;0.00;;;;;;;23.71;67.72;102239.44;10460418;28;20052;-79
2023/05/20 10:13:14;;;;;;;0.20;0.20;;;;;;;24.81;68.38;102225.19;10442208;28;20120;-77
2023/05/20 10:18:45;;;;;;;0.20;0.20;;;;;;;25.61;65.49;102213.50;10438455;28;20052;-78
2023/05/20 10:23:47;;;;;;;0.20;0.00;;;;;;;24.88;67.16;102213.69;10438704;28;20052;-78
2023/05/20 10:28:48;;;;;;;0.30;0.10;;;;;;;24.13;68.88;102212.78;10437349;28;20041;-78
2023/05/20 10:33:52;;;;;;;0.80;0.47;;;;;;;24.17;67.39;102198.66;10443721;28;20045;-77
2023/05/20 10:38:56;;;;;;;0.20;0.20;;;;;;;25.14;69.90;102201.88;10438089;28;20049;-78
2023/05/20 10:44:05;;;;;;;0.00;0.00;;;;;;;23.36;69.32;102204.59;10439176;28;20037;-78
2023/05/20 10:49:19;;;;;;;0.00;0.00;;;;;;;23.09;70.20;102198.63;10438564;28;20052;-78
2023/05/20 10:54:26;;;;;;;0.10;0.10;;;;;;;23.39;72.06;102191.44;10431902;28;20047;-78
2023/05/20 10:59:27;;;;;;;0.38;0.28;;;;;;;23.80;70.64;102193.75;10424245;28;20061;-79
2023/05/20 11:04:30;;;;;;;0.52;0.28;;;;;;;24.12;72.23;102189.97;10456046;28;20446;-81
2023/05/20 11:09:33;;;;;;;0.22;0.20;;;;;;;23.32;73.64;102187.13;10438135;28;20045;-77
2023/05/20 11:14:34;;;;;;;0.25;0.20;;;;;;;24.24;74.50;102174.03;10445462;28;20040;-78
2023/05/20 11:19:37;;;;;;;0.30;0.13;;;;;;;24.56;73.98;102167.50;10423064;28;20103;-76
2023/05/20 11:24:41;;;;;;;0.20;0.20;;;;;;;23.99;70.60;102161.16;10437216;28;20033;-78
2023/05/20 11:29:43;;;;;;;0.00;0.00;;;;;;;25.18;72.39;102150.88;10422927;28;20045;-77
2023/05/20 11:34:50;;;;;;;1.75;0.88;;;;;;;26.20;70.53;102135.06;10455278;28;20044;-79
2023/05/20 11:40:08;;;;;;;0.08;0.08;;;;;;;25.03;70.40;102139.66;10453645;28;20045;-78
2023/05/20 11:45:13;;;;;;;0.47;0.22;;;;;;;27.04;66.85;102129.69;10437278;28;20056;-78
2023/05/20 11:50:17;;;;;;;0.38;0.38;;;;;;;26.16;63.69;102139.53;10454469;28;20053;-80
2023/05/20 11:55:19;;;;;;;0.00;0.00;;;;;;;26.66;66.97;102127.91;10439560;28;20041;-78
2023/05/20 12:00:22;;;;;;;0.20;0.10;;;;;;;26.36;63.74;102125.03;10453364;28;20049;-78
2023/05/20 12:05:24;;;;;;;0.45;0.28;;;;;;;26.38;62.58;102112.66;10421917;28;20103;-79
2023/05/20 12:10:26;;;;;;;0.00;0.00;;;;;;;26.78;63.03;102111.78;10439265;28;20087;-78
2023/05/20 12:15:28;;;;;;;0.03;0.03;;;;;;;26.23;63.83;102098.88;10455001;28;20377;-78
2023/05/20 12:20:32;;;;;;;0.15;0.13;;;;;;;27.01;59.98;102102.44;10436873;28;20045;-77
2023/05/20 12:25:35;;;;;;;0.20;0.10;;;;;;;27.40;63.66;102089.97;10455023;28;20048;-78
2023/05/20 12:30:37;;;;;;;0.10;0.10;;;;;;;26.36;63.82;102090.69;10444268;28;20049;-78
2023/05/20 12:35:40;;;;;;;0.10;0.10;;;;;;;25.83;64.04;102075.88;10458349;28;20037;-80
2023/05/20 12:40:42;;;;;;;0.00;0.00;;;;;;;27.08;65.09;102072.28;10459036;28;20108;-78
2023/05/20 12:45:44;;;;;;;0.05;0.03;;;;;;;25.69;62.72;102070.00;10427043;28;20496;-80
2023/05/20 12:50:46;;;;;;;0.40;0.32;;;;;;;25.75;62.46;102067.22;10427670;28;20049;-78
2023/05/20 12:55:48;;;;;;;0.10;0.10;;;;;;;25.92;64.40;102073.06;10426153;28;20110;-78
2023/05/20 13:00:49;;;;;;;0.00;0.00;;;;;;;27.62;68.66;102063.00;10442464;28;20537;-79
2023/05/20 13:05:51;;;;;;;0.40;0.40;;;;;;;26.91;61.83;102060.38;10457355;28;20037;-78
2023/05/20 13:10:53;;;;;;;0.22;0.00;;;;;;;27.50;67.04;102056.25;10438164;28;20509;-78
2023/05/20 13:15:55;;;;;;;0.88;0.17;;;;;;;24.62;63.55;102074.34;10448845;28;20104;-78
2023/05/20 13:20:57;;;;;;;0.03;0.00;;;;;;;26.52;63.87;102060.38;10464755;28;20087;-79
2023/05/20 13:25:58;;;;;;;0.00;0.00;;;;;;;26.15;58.93;102053.28;10445993;28;20570;-79
2023/05/20 13:31:01;;;;;;;0.28;0.10;;;;;;;27.09;63.55;102058.16;10446242;28;20053;-78
2023/05/20 13:36:04;;;;;;;0.17;0.17;;;;;;;26.29;59.67;102053.84;10445801;28;20446;-77
2023/05/20 13:41:05;;;;;;;0.20;0.10;;;;;;;26.77;61.00;102036.03;10447071;28;20447;-77
2023/05/20 13:46:07;;;;;;;0.10;0.10;;;;;;;25.80;60.95;102041.63;10443463;28;20479;-78
2023/05/20 13:51:09;;;;;;;0.00;0.00;;;;;;;25.93;60.05;102019.38;10445522;28;20060;-79
2023/05/20 13:56:11;;;;;;;0.03;0.03;;;;;;;25.28;59.81;102007.38;10461304;28;20392;-80
2023/05/20 14:01:14;;;;;;;0.08;0.08;;;;;;;26.41;61.51;102013.06;10460017;28;20401;-78
2023/05/20 14:06:17;;;;;;;0.68;0.10;;;;;;;25.79;63.90;102008.22;10458561;28;20120;-78
2023/05/20 14:11:20;;;;;;;0.43;0.20;;;;;;;25.87;64.79;102008.94;10433400;28;20060;-78
2023/05/20 14:16:22;;;;;;;0.10;0.10;;;;;;;25.75;63.57;101995.97;10429300;28;20057;-77
2023/05/20 14:21:24;;;;;;;0.00;0.00;;;;;;;25.79;60.93;101992.38;10449976;28;20548;-78
2023/05/20 14:26:26;;;;;;;0.10;0.10;;;;;;;25.64;63.70;101994.44;10425605;28;20049;-79
2023/05/20 14:31:27;;;;;;;0.65;0.63;;;;;;;26.03;60.57;101990.09;10416571;28;20099;-78
2023/05/20 14:36:29;;;;;;;0.00;0.00;;;;;;;25.12;59.72;101988.34;10432702;28;20148;-79
2023/05/20 14:41:31;;;;;;;0.10;0.10;;;;;;;25.77;63.24;101989.75;10449402;28;20051;-79
2023/05/20 14:46:33;;;;;;;0.00;0.00;;;;;;;25.90;60.43;101987.75;10410834;28;20365;-80
2023/05/20 14:51:35;;;;;;;1.30;0.50;;;;;;;26.40;65.51;101986.66;10425670;28;20137;-77
2023/05/20 14:56:36;;;;;;;0.32;0.32;;;;;;;25.68;63.14;101984.69;10409763;28;20516;-77
2023/05/20 15:01:38;;;;;;;0.47;0.40;;;;;;;24.63;63.82;101986.50;10427895;28;20463;-78
2023/05/20 15:06:40;;;;;;;0.10;0.10;;;;;;;25.01;63.15;101993.81;10432267;28;20055;-78
2023/05/20 15:11:43;;;;;;;0.20;0.05;;;;;;;24.65;65.59;101998.75;10418738;28;20102;-78
2023/05/20 15:16:45;;;;;;;0.00;0.00;;;;;;;25.44;65.10;101981.63;10435552;28;20041;-79
2023/05/20 15:21:48;;;;;;;0.65;0.20;;;;;;;24.43;63.97;101977.13;10443493;28;20439;-78
2023/05/20 15:26:51;;;;;;;0.03;0.00;;;;;;;24.46;66.32;101974.47;10409880;28;20408;-79
2023/05/20 15:31:53;;;;;;;0.60;0.28;;;;;;;24.76;63.92;101967.00;10435676;28;20044;-78
2023/05/20 15:36:54;;;;;;;0.13;0.13;;;;;;;25.52;63.81;101973.56;10414519;28;20044;-78
2023/05/20 15:42:00;;;;;;;0.20;0.10;;;;;;;24.80;65.74;101973.09;10437733;28;20049;-77
2023/05/20 15:47:04;;;;;;;0.28;0.22;;;;;;;23.80;63.39;101968.34;10437944;28;20048;-78
2023/05/20 15:52:06;;;;;;;0.30;0.30;;;;;;;23.74;64.25;101966.66;10456109;28;20045;-78
2023/05/20 15:57:08;;;;;;;0.68;0.50;;;;;;;24.68;60.55;101953.09;10438939;28;20045;-77
2023/05/20 16:02:10;;;;;;;0.00;0.00;;;;;;;24.31;62.72;101951.84;10456146;28;20053;-78
2023/05/20 16:07:13;;;;;;;0.13;0.13;;;;;;;23.80;65.82;101956.91;10438335;28;20041;-79
2023/05/20 16:12:15;;;;;;;0.47;0.22;;;;;;;24.54;65.49;101959.41;10438906;28;20534;-78
2023/05/20 16:17:20;;;;;;;0.10;0.08;;;;;;;24.54;65.09;101955.91;10440450;28;20037;-79
2023/05/20 16:22:22;;;;;;;0.22;0.15;;;;;;;24.48;62.99;101956.00;10439795;28;20045;-78
2023/05/20 16:27:23;;;;;;;0.30;0.20;;;;;;;24.05;66.50;101958.38;10431518;28;20493;-79
2023/05/20 16:32:25;;;;;;;0.05;0.05;;;;;;;24.73;66.23;101959.13;10434663;28;20049;-78
2023/05/20 16:37:27;;;;;;;0.20;0.20;;;;;;;24.67;62.61;101952.22;10401046;28;20588;-79
2023/05/20 16:42:29;;;;;;;0.30;0.20;;;;;;;23.80;66.36;101956.91;10459151;28;20047;-78
2023/05/20 16:47:31;;;;;;;0.10;0.10;;;;;;;23.56;63.83;101964.25;10429882;28;20080;-80
2023/05/20 16:52:34;;;;;;;0.03;0.03;;;;;;;24.14;64.88;101964.41;10447636;28;20040;-78
2023/05/20 16:57:36;;;;;;;0.13;0.10;;;;;;;24.42;67.12;101970.16;10467748;28;20534;-78
2023/05/20 17:02:38;;;;;;;0.10;0.10;;;;;;;24.12;66.38;101960.91;10467363;28;20447;-77
2023/05/20 17:07:41;;;;;;;0.20;0.13;;;;;;;24.03;62.35;101961.94;10432692;28;20060;-80
2023/05/20 17:12:43;;;;;;;0.32;0.32;;;;;;;24.29;65.81;101955.41;10448898;28;20056;-77
2023/05/20 17:17:47;;;;;;;0.00;0.00;;;;;;;23.68;65.02;101964.09;10447142;28;20061;-79
2023/05/20 17:22:48;;;;;;;0.38;0.20;;;;;;;22.69;66.05;101980.78;10444767;28;20128;-78
2023/05/20 17:27:50;;;;;;;2.20;0.40;;;;;;;23.11;68.63;101973.44;10451001;28;20049;-78
2023/05/20 17:32:56;;;;;;;0.80;0.20;;;;;;;23.64;68.03;101967.66;10442721;28;20056;-80
2023/05/20 17:37:57;;;;;;;0.20;0.20;;;;;;;23.19;69.85;101972.53;10452914;28;20096;-78
2023/05/20 17:42:59;;;;;;;0.93;0.32;;;;;;;22.65;71.06;101979.09;10429600;28;20041;-78
2023/05/20 17:48:05;;;;;;;0.17;0.17;;;;;;;23.09;69.35;101971.69;10436304;28;20106;-78
2023/05/20 17:53:10;;;;;;;0.95;0.13;;;;;;;23.77;68.69;101974.50;10445642;28;20048;-77
2023/05/20 17:58:12;;;;;;;0.10;0.10;;;;;;;23.92;67.54;101980.47;10453794;28;20033;-78
2023/05/20 18:03:13;;;;;;;0.35;0.30;;;;;;;24.60;68.99;101971.63;10439097;28;20049;-79
2023/05/20 18:08:17;;;;;;;0.00;0.00;;;;;;;24.17;68.24;101985.41;10459148;28;20049;-79
2023/05/20 18:13:19;;;;;;;0.43;0.35;;;;;;;24.04;68.64;101977.69;10438557;28;20057;-80
2023/05/20 18:18:21;;;;;;;0.00;0.00;;;;;;;23.70;68.96;101988.63;10432983;28;20697;-78
2023/05/20 18:23:22;;;;;;;0.40;0.40;;;;;;;23.50;71.29;101986.22;10459973;28;20037;-80
2023/05/20 18:28:24;;;;;;;0.00;0.00;;;;;;;23.18;72.44;101984.78;10458738;28;20515;-79
2023/05/20 18:33:29;;;;;;;0.32;0.28;;;;;;;23.67;71.47;101983.38;10436338;28;20105;-79
2023/05/20 18:38:31;;;;;;;0.03;0.03;;;;;;;23.54;71.99;101984.44;10448326;28;20052;-79
2023/05/20 18:43:35;;;;;;;0.00;0.00;;;;;;;23.21;72.80;101976.00;10456034;28;20480;-76
2023/05/20 18:48:37;;;;;;;0.20;0.10;;;;;;;23.10;74.70;101966.44;10434525;28;20060;-77
2023/05/20 18:53:39;;;;;;;0.30;0.20;;;;;;;23.51;72.43;101966.94;10451462;28;20037;-78
2023/05/20 18:58:41;;;;;;;0.30;0.28;;;;;;;23.16;75.24;101964.63;10418244;28;20048;-79
2023/05/20 19:03:45;;;;;;;0.45;0.10;;;;;;;23.02;75.31;101963.00;10438615;28;20048;-78
2023/05/20 19:08:48;;;;;;;0.17;0.17;;;;;;;22.98;77.41;101961.28;10433890;28;20044;-78
2023/05/20 19:13:50;;;;;;;0.00;0.00;;;;;;;22.57;77.50;101965.13;10437442;28;20098;-78
2023/05/20 19:18:51;;;;;;;0.15;0.08;;;;;;;22.13;79.36;101973.25;10422887;28;20044;-77
2023/05/20 19:23:53;;;;;;;1.00;0.55;;;;;;;22.85;77.99;101975.41;10447164;28;20128;-80
2023/05/20 19:28:55;;;;;;;0.20;0.17;;;;;;;22.22;80.21;101979.34;10432843;28;20045;-77
2023/05/20 19:33:56;;;;;;;0.10;0.10;;;;;;;22.70;80.26;101985.16;10454692;28;20490;-78
2023/05/20 19:38:59;;;;;;;0.63;0.10;;;;;;;22.67;79.74;101993.09;10433478;28;20049;-77
2023/05/20 19:44:01;;;;;;;0.00;0.00;;;;;;;22.14;80.72;101998.63;10416449;28;20052;-78
2023/05/20 19:49:03;;;;;;;0.22;0.10;;;;;;;22.24;82.30;101993.31;10433410;28;20041;-78
2023/05/20 19:54:04;;;;;;;0.38;0.20;;;;;;;22.07;84.03;101991.66;10456335;28;20040;-78
2023/05/20 19:59:06;;;;;;;0.30;0.15;;;;;;;22.44;83.23;102004.63;10436041;28;20049;-80
2023/05/20 20:04:07;;;;;;;0.40;0.20;;;;;;;21.74;85.62;101998.78;10453086;28;21493;-80
2023/05/20 20:09:09;;;;;;;0.30;0.30;;;;;;;21.78;85.43;101999.63;10426402;28;20037;-78
2023/05/20 20:14:11;;;;;;;0.40;0.13;;;;;;;21.38;88.25;101997.97;10438657;28;20064;-80
2023/05/20 20:19:17;;;;;;;1.65;0.32;;;;;;;21.58;86.00;101999.69;10455694;28;20045;-79
2023/05/20 20:24:19;;;;;;;0.10;0.10;;;;;;;21.60;86.55;101997.94;10454509;28;20449;-78
2023/05/20 20:29:26;;;;;;;0.00;0.00;;;;;;;21.73;86.49;101997.03;10450372;28;20045;-78
2023/05/20 20:34:28;;;;;;;0.40;0.40;;;;;;;21.61;87.85;101992.69;10442015;28;20055;-80
2023/05/20 20:39:30;;;;;;;0.25;0.10;;;;;;;21.31;90.50;101988.38;10441102;28;20131;-78
2023/05/20 20:44:32;;;;;;;0.22;0.22;;;;;;;21.23;90.52;101981.41;10457015;28;20053;-78
2023/05/20 20:49:33;;;;;;;0.10;0.10;;;;;;;21.47;91.67;101981.34;10457140;28;20053;-78
2023/05/20 20:54:35;;;;;;;0.30;0.20;;;;;;;21.21;91.25;101992.75;10438485;28;20041;-78
2023/05/20 20:59:37;;;;;;;0.20;0.10;;;;;;;21.19;92.62;101990.13;10444209;28;20049;-80
2023/05/20 21:04:40;;;;;;;0.55;0.20;;;;;;;20.76;94.71;101992.75;10434815;28;20056;-79
2023/05/20 21:09:44;;;;;;;0.00;0.00;;;;;;;21.06;94.84;101988.38;10440894;28;20040;-79
2023/05/20 21:14:46;;;;;;;1.02;0.57;;;;;;;20.59;96.65;101993.56;10437318;28;20106;-78
2023/05/20 21:19:56;;;;;;;0.10;0.10;;;;;;;20.71;96.67;101986.63;10452028;28;20047;-79
2023/05/20 21:24:57;;;;;;;0.10;0.10;;;;;;;20.29;99.17;101990.00;10432001;28;20507;-79
2023/05/20 21:29:59;;;;;;;0.10;0.00;;;;;;;20.13;100.00;101977.78;10434412;28;20099;-80
2023/05/20 21:35:00;;;;;;;0.00;0.00;;;;;;;19.85;100.00;101976.78;10452093;28;20040;-80
2023/05/20 21:40:02;;;;;;;0.10;0.10;;;;;;;20.24;100.00;101968.19;10436098;28;20057;-80
2023/05/20 21:45:05;;;;;;;0.10;0.10;;;;;;;20.06;100.00;101970.78;10455377;28;20045;-80
2023/05/20 21:50:07;;;;;;;0.13;0.10;;;;;;;20.12;100.00;101965.56;10443340;28;20041;-80
2023/05/20 21:55:09;;;;;;;0.57;0.35;;;;;;;19.63;100.00;101954.00;10420040;28;20049;-79
2023/05/20 22:00:13;;;;;;;0.30;0.20;;;;;;;19.68;100.00;101950.53;10436338;28;20090;-80
2023/05/20 22:05:16;;;;;;;0.70;0.52;;;;;;;19.88;100.00;101950.66;10436067;28;20476;-79
2023/05/20 22:10:19;;;;;;;0.10;0.10;;;;;;;20.06;100.00;101944.63;10443115;28;20478;-80
2023/05/20 22:15:21;;;;;;;0.15;0.10;;;;;;;20.06;100.00;101945.47;10434845;28;20417;-79
2023/05/20 22:20:24;;;;;;;1.85;0.30;;;;;;;19.88;100.00;101942.81;10434141;28;20435;-80
2023/05/20 22:25:25;;;;;;;0.15;0.15;;;;;;;20.00;100.00;101934.13;10453381;28;20480;-80
2023/05/20 22:30:27;;;;;;;0.28;0.10;;;;;;;19.84;100.00;101936.72;10434885;28;20060;-80
2023/05/20 22:35:29;;;;;;;0.70;0.20;;;;;;;20.01;100.00;101925.41;10453054;28;20037;-80
2023/05/20 22:40:32;;;;;;;0.30;0.28;;;;;;;20.31;100.00;101918.50;10432139;28;20484;-80
2023/05/20 22:45:39;;;;;;;0.10;0.10;;;;;;;20.26;100.00;101910.63;10444306;28;20730;-80
2023/05/20 22:50:41;;;;;;;0.60;0.35;;;;;;;20.23;100.00;101901.03;10433543;28;20074;-80
2023/05/20 22:55:43;;;;;;;0.00;0.00;;;;;;;20.26;100.00;101901.06;10432038;28;20041;-80
2023/05/20 23:00:44;;;;;;;0.52;0.38;;;;;;;20.25;100.00;101894.06;10433754;28;20496;-80
2023/05/20 23:05:46;;;;;;;0.10;0.10;;;;;;;20.15;100.00;101889.69;10429699;28;20441;-80